Tropical Cyclones
[Index]
Main Index Home Page Stock Weather Photos Extreme Storms Discussion Storm News and Storm Chasing Reports Tropical Cyclones / Hurricanes / Typhoons Weather Data and Links Wild Fires / Bushfires Weather Observation Techniques Weather Picture Catalogue Tornado Pictures and Reports Stock Video Footage and DVDs for sale
Season 1999-2000 Tropical Cyclone TROP-DEPRESSION-09 Track Map
Season 1999-2000 Summaries (Operational Data): [AU] [SIO] [SPAC] [SH]
<<- Previous TC | 1999-2000 Season | Next TC ->>

click for intensity scale information  Lat/long Grid: Show Hide

 Date Labels: Show Hide

Operational Tropical Cyclone Data

Name: TROP-DEPRESSION-09
Number: 00PS

03 May 2000 12:00 UTC to 08 May 2000 18:00 UTC

    date/time    lat    long     hPa   cat  kts
2000-05-03 12   19.0   167.0W   1004         30          
2000-05-03 18   20.4   165.5W   1004         30          
2000-05-04 00   20.6   165.6W   1004         30          
2000-05-04 00   20.5   164.2W   1004    1    35          
2000-05-04 06   20.5   165.7W   1004    1    35          
2000-05-04 12   20.7   166.0W   1004    1    35          
2000-05-04 18   20.8   166.7W   1004    1    35          
2000-05-05 00   20.0   165.0W   1004    1    35          
2000-05-05 06   20.0   165.0W   1004    1    35          
2000-05-05 12   20.0   165.0W   1001    1    35          
2000-05-05 18   20.3   165.9W   1001    1    40          
2000-05-06 00   20.4   165.7W   1001    1    40          
2000-05-06 06   20.3   166.1W   1001    1    40          
2000-05-06 12   20.3   166.3W   1004    1    40          
2000-05-06 18   20.4   166.1W   1004    1    35          
2000-05-07 00   20.7   165.4W   1004    1    35          
2000-05-07 06   21.1   165.1W   1004    1    35          
2000-05-07 12   21.9   165.2W   1004    1    35          
2000-05-07 18   21.9   166.1W   1004    1    35          
2000-05-08 00   21.9   167.1W   1004    1    35          
2000-05-08 06   21.8   167.8W   1004    1    35          
2000-05-08 12   21.9   168.8W   1004    1    35          
2000-05-08 18   22.2   169.2W   1004    1    35          
Winds are 10-min average.

Tropical cyclone tracks developed by Michael Bath using operational warnings and advisories and Google Maps.


[Australian Severe Weather index] [Copyright Notice] [Email Contacts] [Search This Site] [Privacy Policy]
Document: tropical_cyclone_trop-depression-09.htm Updated: 28 May 2013